sensor_id;sensor_type;location;lat;lon;timestamp;temperature;humidity
29403;DHT22;16382;59.942;30.472;2022-12-07T00:00:55;-3.60;99.90
29403;DHT22;16382;59.942;30.472;2022-12-07T00:03:31;-3.60;99.90
29403;DHT22;16382;59.942;30.472;2022-12-07T00:05:59;-3.50;99.90
29403;DHT22;16382;59.942;30.472;2022-12-07T00:08:26;-3.50;99.90
29403;DHT22;16382;59.942;30.472;2022-12-07T00:10:54;-3.60;99.90
29403;DHT22;16382;59.942;30.472;2022-12-07T00:13:22;-3.60;99.90
29403;DHT22;16382;59.942;30.472;2022-12-07T00:15:50;-3.60;99.90
29403;DHT22;16382;59.942;30.472;2022-12-07T00:18:18;-3.60;99.90
29403;DHT22;16382;59.942;30.472;2022-12-07T00:20:45;-3.60;99.90
29403;DHT22;16382;59.942;30.472;2022-12-07T00:23:15;-3.60;99.90
29403;DHT22;16382;59.942;30.472;2022-12-07T00:25:43;-3.60;99.90
29403;DHT22;16382;59.942;30.472;2022-12-07T00:28:11;-3.60;99.90
29403;DHT22;16382;59.942;30.472;2022-12-07T00:30:38;-3.50;99.90
29403;DHT22;16382;59.942;30.472;2022-12-07T00:33:07;-3.60;99.90
29403;DHT22;16382;59.942;30.472;2022-12-07T00:35:34;-3.50;99.90
29403;DHT22;16382;59.942;30.472;2022-12-07T00:38:01;-3.40;99.90
29403;DHT22;16382;59.942;30.472;2022-12-07T00:40:29;-3.50;99.90
29403;DHT22;16382;59.942;30.472;2022-12-07T00:42:56;-3.50;99.90
29403;DHT22;16382;59.942;30.472;2022-12-07T00:45:24;-3.50;99.90
29403;DHT22;16382;59.942;30.472;2022-12-07T00:47:51;-3.50;99.90
29403;DHT22;16382;59.942;30.472;2022-12-07T00:50:20;-3.50;99.90
29403;DHT22;16382;59.942;30.472;2022-12-07T00:52:47;-3.50;99.90
29403;DHT22;16382;59.942;30.472;2022-12-07T00:55:15;-3.60;99.90
29403;DHT22;16382;59.942;30.472;2022-12-07T00:57:42;-3.50;99.90
29403;DHT22;16382;59.942;30.472;2022-12-07T01:00:10;-3.50;99.90
29403;DHT22;16382;59.942;30.472;2022-12-07T01:02:38;-3.50;99.90
29403;DHT22;16382;59.942;30.472;2022-12-07T01:05:06;-3.50;99.90
29403;DHT22;16382;59.942;30.472;2022-12-07T01:07:36;-3.50;99.90
29403;DHT22;16382;59.942;30.472;2022-12-07T01:10:04;-3.40;99.90
29403;DHT22;16382;59.942;30.472;2022-12-07T01:12:33;-3.40;99.90
29403;DHT22;16382;59.942;30.472;2022-12-07T01:15:00;-3.40;99.90
29403;DHT22;16382;59.942;30.472;2022-12-07T01:17:29;-3.30;99.90
29403;DHT22;16382;59.942;30.472;2022-12-07T01:19:57;-3.30;99.90
29403;DHT22;16382;59.942;30.472;2022-12-07T01:22:24;-3.40;99.90
29403;DHT22;16382;59.942;30.472;2022-12-07T01:24:53;-3.40;99.90
29403;DHT22;16382;59.942;30.472;2022-12-07T01:27:21;-3.40;99.90
29403;DHT22;16382;59.942;30.472;2022-12-07T01:29:49;-3.40;99.90
29403;DHT22;16382;59.942;30.472;2022-12-07T01:32:17;-3.40;99.90
29403;DHT22;16382;59.942;30.472;2022-12-07T01:34:47;-3.40;99.90
29403;DHT22;16382;59.942;30.472;2022-12-07T01:37:15;-3.40;99.90
29403;DHT22;16382;59.942;30.472;2022-12-07T01:39:42;-3.40;99.90
29403;DHT22;16382;59.942;30.472;2022-12-07T01:42:11;-3.30;99.90
29403;DHT22;16382;59.942;30.472;2022-12-07T01:48:04;-3.30;99.90
29403;DHT22;16382;59.942;30.472;2022-12-07T01:50:33;-3.40;99.90
29403;DHT22;16382;59.942;30.472;2022-12-07T01:53:03;-3.40;99.90
29403;DHT22;16382;59.942;30.472;2022-12-07T01:55:34;-3.30;99.90
29403;DHT22;16382;59.942;30.472;2022-12-07T01:58:07;-3.40;99.90
29403;DHT22;16382;59.942;30.472;2022-12-07T02:00:35;-3.30;99.90
29403;DHT22;16382;59.942;30.472;2022-12-07T02:03:05;-3.30;99.90
29403;DHT22;16382;59.942;30.472;2022-12-07T02:05:37;-3.30;99.90
29403;DHT22;16382;59.942;30.472;2022-12-07T02:08:06;-3.30;99.90
29403;DHT22;16382;59.942;30.472;2022-12-07T02:10:34;-3.20;99.90
29403;DHT22;16382;59.942;30.472;2022-12-07T02:13:04;-3.30;99.90
29403;DHT22;16382;59.942;30.472;2022-12-07T02:15:44;-3.30;99.90
29403;DHT22;16382;59.942;30.472;2022-12-07T02:18:28;-3.30;99.90
29403;DHT22;16382;59.942;30.472;2022-12-07T02:21:07;-3.30;99.90
29403;DHT22;16382;59.942;30.472;2022-12-07T02:27:04;-3.20;99.90
29403;DHT22;16382;59.942;30.472;2022-12-07T02:29:43;-3.20;99.90
29403;DHT22;16382;59.942;30.472;2022-12-07T02:32:16;-3.20;99.90
29403;DHT22;16382;59.942;30.472;2022-12-07T02:34:50;-3.20;99.90
29403;DHT22;16382;59.942;30.472;2022-12-07T02:37:29;-3.30;99.90
29403;DHT22;16382;59.942;30.472;2022-12-07T02:40:05;-3.30;99.90
29403;DHT22;16382;59.942;30.472;2022-12-07T02:42:39;-3.30;99.90
29403;DHT22;16382;59.942;30.472;2022-12-07T02:45:14;-3.30;99.90
29403;DHT22;16382;59.942;30.472;2022-12-07T02:47:43;-3.20;99.90
29403;DHT22;16382;59.942;30.472;2022-12-07T02:50:11;-3.20;99.90
29403;DHT22;16382;59.942;30.472;2022-12-07T02:52:39;-3.30;99.90
29403;DHT22;16382;59.942;30.472;2022-12-07T02:55:07;-3.30;99.90
29403;DHT22;16382;59.942;30.472;2022-12-07T02:57:54;-3.20;99.90
29403;DHT22;16382;59.942;30.472;2022-12-07T03:00:31;-3.30;99.90
29403;DHT22;16382;59.942;30.472;2022-12-07T03:03:09;-3.30;99.90
29403;DHT22;16382;59.942;30.472;2022-12-07T03:05:49;-3.30;99.90
29403;DHT22;16382;59.942;30.472;2022-12-07T03:08:29;-3.30;99.90
29403;DHT22;16382;59.942;30.472;2022-12-07T03:11:03;-3.30;99.90
29403;DHT22;16382;59.942;30.472;2022-12-07T03:13:38;-3.30;99.90
29403;DHT22;16382;59.942;30.472;2022-12-07T03:16:14;-3.20;99.90
29403;DHT22;16382;59.942;30.472;2022-12-07T03:18:46;-3.20;99.90
29403;DHT22;16382;59.942;30.472;2022-12-07T03:21:20;-3.20;99.90
29403;DHT22;16382;59.942;30.472;2022-12-07T03:23:52;-3.30;99.90
29403;DHT22;16382;59.942;30.472;2022-12-07T03:26:23;-3.20;99.90
29403;DHT22;16382;59.942;30.472;2022-12-07T03:28:55;-3.20;99.90
29403;DHT22;16382;59.942;30.472;2022-12-07T03:31:29;-3.20;99.90
29403;DHT22;16382;59.942;30.472;2022-12-07T03:34:03;-3.30;99.90
29403;DHT22;16382;59.942;30.472;2022-12-07T03:36:40;-3.30;99.90
29403;DHT22;16382;59.942;30.472;2022-12-07T03:39:17;-3.30;99.90
29403;DHT22;16382;59.942;30.472;2022-12-07T03:41:50;-3.30;99.90
29403;DHT22;16382;59.942;30.472;2022-12-07T03:44:18;-3.30;99.90
29403;DHT22;16382;59.942;30.472;2022-12-07T03:46:55;-3.40;99.90
29403;DHT22;16382;59.942;30.472;2022-12-07T03:49:32;-3.30;99.90
29403;DHT22;16382;59.942;30.472;2022-12-07T03:52:11;-3.30;99.90
29403;DHT22;16382;59.942;30.472;2022-12-07T03:54:47;-3.30;99.90
29403;DHT22;16382;59.942;30.472;2022-12-07T03:57:19;-3.30;99.90
29403;DHT22;16382;59.942;30.472;2022-12-07T03:59:47;-3.30;99.90
29403;DHT22;16382;59.942;30.472;2022-12-07T04:02:17;-3.30;99.90
29403;DHT22;16382;59.942;30.472;2022-12-07T04:04:44;-3.30;99.90
29403;DHT22;16382;59.942;30.472;2022-12-07T04:07:12;-3.30;99.90
29403;DHT22;16382;59.942;30.472;2022-12-07T04:09:39;-3.30;99.90
29403;DHT22;16382;59.942;30.472;2022-12-07T04:12:07;-3.30;99.90
29403;DHT22;16382;59.942;30.472;2022-12-07T04:14:35;-3.30;99.90
29403;DHT22;16382;59.942;30.472;2022-12-07T04:17:03;-3.30;99.90
29403;DHT22;16382;59.942;30.472;2022-12-07T04:19:33;-3.30;99.90
29403;DHT22;16382;59.942;30.472;2022-12-07T04:22:02;-3.30;99.90
29403;DHT22;16382;59.942;30.472;2022-12-07T04:24:32;-3.40;99.90
29403;DHT22;16382;59.942;30.472;2022-12-07T04:27:01;-3.40;99.90
29403;DHT22;16382;59.942;30.472;2022-12-07T04:29:29;-3.30;99.90
29403;DHT22;16382;59.942;30.472;2022-12-07T04:31:57;-3.30;99.90
29403;DHT22;16382;59.942;30.472;2022-12-07T04:34:24;-3.30;99.90
29403;DHT22;16382;59.942;30.472;2022-12-07T04:36:53;-3.30;99.90
29403;DHT22;16382;59.942;30.472;2022-12-07T04:39:25;-3.30;99.90
29403;DHT22;16382;59.942;30.472;2022-12-07T04:41:54;-3.20;99.90
29403;DHT22;16382;59.942;30.472;2022-12-07T04:44:23;-3.20;99.90
29403;DHT22;16382;59.942;30.472;2022-12-07T04:46:52;-3.30;99.90
29403;DHT22;16382;59.942;30.472;2022-12-07T04:49:20;-3.20;99.90
29403;DHT22;16382;59.942;30.472;2022-12-07T04:51:48;-3.30;99.90
29403;DHT22;16382;59.942;30.472;2022-12-07T04:54:18;-3.30;99.90
29403;DHT22;16382;59.942;30.472;2022-12-07T04:56:46;-3.30;99.90
29403;DHT22;16382;59.942;30.472;2022-12-07T04:59:15;-3.30;99.90
29403;DHT22;16382;59.942;30.472;2022-12-07T05:01:44;-3.30;99.90
29403;DHT22;16382;59.942;30.472;2022-12-07T05:04:11;-3.30;99.90
29403;DHT22;16382;59.942;30.472;2022-12-07T05:06:39;-3.20;99.90
29403;DHT22;16382;59.942;30.472;2022-12-07T05:09:07;-3.20;99.90
29403;DHT22;16382;59.942;30.472;2022-12-07T05:11:36;-3.30;99.90
29403;DHT22;16382;59.942;30.472;2022-12-07T05:14:11;-3.20;99.90
29403;DHT22;16382;59.942;30.472;2022-12-07T05:16:40;-3.20;99.90
29403;DHT22;16382;59.942;30.472;2022-12-07T05:19:08;-3.30;99.90
29403;DHT22;16382;59.942;30.472;2022-12-07T05:21:37;-3.30;99.90
29403;DHT22;16382;59.942;30.472;2022-12-07T05:24:06;-3.30;99.90
29403;DHT22;16382;59.942;30.472;2022-12-07T05:26:35;-3.30;99.90
29403;DHT22;16382;59.942;30.472;2022-12-07T05:29:03;-3.30;99.90
29403;DHT22;16382;59.942;30.472;2022-12-07T05:31:31;-3.30;99.90
29403;DHT22;16382;59.942;30.472;2022-12-07T05:33:59;-3.30;99.90
29403;DHT22;16382;59.942;30.472;2022-12-07T05:36:27;-3.30;99.90
29403;DHT22;16382;59.942;30.472;2022-12-07T05:38:56;-3.30;99.90
29403;DHT22;16382;59.942;30.472;2022-12-07T05:41:24;-3.30;99.90
29403;DHT22;16382;59.942;30.472;2022-12-07T05:44:10;-3.40;99.90
29403;DHT22;16382;59.942;30.472;2022-12-07T05:46:42;-3.30;99.90
29403;DHT22;16382;59.942;30.472;2022-12-07T05:49:10;-3.30;99.90
29403;DHT22;16382;59.942;30.472;2022-12-07T05:51:41;-3.30;99.90
29403;DHT22;16382;59.942;30.472;2022-12-07T05:54:08;-3.30;99.90
29403;DHT22;16382;59.942;30.472;2022-12-07T05:56:36;-3.30;99.90
29403;DHT22;16382;59.942;30.472;2022-12-07T05:59:04;-3.30;99.90
29403;DHT22;16382;59.942;30.472;2022-12-07T06:01:52;-3.30;99.90
29403;DHT22;16382;59.942;30.472;2022-12-07T06:04:20;-3.30;99.90
29403;DHT22;16382;59.942;30.472;2022-12-07T06:06:48;-3.30;99.90
29403;DHT22;16382;59.942;30.472;2022-12-07T06:09:17;-3.30;99.90
29403;DHT22;16382;59.942;30.472;2022-12-07T06:11:45;-3.30;99.90
29403;DHT22;16382;59.942;30.472;2022-12-07T06:14:30;-3.30;99.90
29403;DHT22;16382;59.942;30.472;2022-12-07T06:17:09;-3.30;99.90
29403;DHT22;16382;59.942;30.472;2022-12-07T06:19:38;-3.30;99.90
29403;DHT22;16382;59.942;30.472;2022-12-07T06:22:08;-3.30;99.90
29403;DHT22;16382;59.942;30.472;2022-12-07T06:24:38;-3.30;99.90
29403;DHT22;16382;59.942;30.472;2022-12-07T06:27:06;-3.20;99.90
29403;DHT22;16382;59.942;30.472;2022-12-07T06:29:33;-3.20;99.90
29403;DHT22;16382;59.942;30.472;2022-12-07T06:32:02;-3.20;99.90
29403;DHT22;16382;59.942;30.472;2022-12-07T06:34:30;-3.20;99.90
29403;DHT22;16382;59.942;30.472;2022-12-07T06:36:58;-3.20;99.90
29403;DHT22;16382;59.942;30.472;2022-12-07T06:39:27;-3.20;99.90
29403;DHT22;16382;59.942;30.472;2022-12-07T06:41:55;-3.30;99.90
29403;DHT22;16382;59.942;30.472;2022-12-07T06:44:23;-3.30;99.90
29403;DHT22;16382;59.942;30.472;2022-12-07T06:46:51;-3.30;99.90
29403;DHT22;16382;59.942;30.472;2022-12-07T06:49:21;-3.30;99.90
29403;DHT22;16382;59.942;30.472;2022-12-07T06:51:48;-3.20;99.90
29403;DHT22;16382;59.942;30.472;2022-12-07T06:54:16;-3.20;99.90
29403;DHT22;16382;59.942;30.472;2022-12-07T06:56:44;-3.10;99.90
29403;DHT22;16382;59.942;30.472;2022-12-07T06:59:12;-3.20;99.90
29403;DHT22;16382;59.942;30.472;2022-12-07T07:01:39;-3.20;99.90
29403;DHT22;16382;59.942;30.472;2022-12-07T07:04:07;-3.20;99.90
29403;DHT22;16382;59.942;30.472;2022-12-07T07:06:35;-3.20;99.90
29403;DHT22;16382;59.942;30.472;2022-12-07T07:09:03;-3.10;99.90
29403;DHT22;16382;59.942;30.472;2022-12-07T07:11:30;-3.00;99.90
29403;DHT22;16382;59.942;30.472;2022-12-07T07:13:58;-3.00;99.90
29403;DHT22;16382;59.942;30.472;2022-12-07T07:16:28;-2.90;99.90
29403;DHT22;16382;59.942;30.472;2022-12-07T07:18:57;-2.90;99.90
29403;DHT22;16382;59.942;30.472;2022-12-07T07:21:24;-2.90;99.90
29403;DHT22;16382;59.942;30.472;2022-12-07T07:23:53;-2.90;99.90
29403;DHT22;16382;59.942;30.472;2022-12-07T07:26:20;-2.90;99.90
29403;DHT22;16382;59.942;30.472;2022-12-07T07:28:48;-2.80;99.90
29403;DHT22;16382;59.942;30.472;2022-12-07T07:31:15;-2.80;99.90
29403;DHT22;16382;59.942;30.472;2022-12-07T07:33:42;-2.80;99.90
29403;DHT22;16382;59.942;30.472;2022-12-07T07:36:10;-2.80;99.90
29403;DHT22;16382;59.942;30.472;2022-12-07T07:38:37;-2.80;99.90
29403;DHT22;16382;59.942;30.472;2022-12-07T07:41:06;-2.80;99.90
29403;DHT22;16382;59.942;30.472;2022-12-07T07:43:33;-2.80;99.90
29403;DHT22;16382;59.942;30.472;2022-12-07T07:46:01;-2.80;99.90
29403;DHT22;16382;59.942;30.472;2022-12-07T07:48:28;-2.70;99.90
29403;DHT22;16382;59.942;30.472;2022-12-07T07:50:56;-2.70;99.90
29403;DHT22;16382;59.942;30.472;2022-12-07T07:53:23;-2.70;99.90
29403;DHT22;16382;59.942;30.472;2022-12-07T07:55:51;-2.70;99.90
29403;DHT22;16382;59.942;30.472;2022-12-07T07:58:22;-2.70;99.90
29403;DHT22;16382;59.942;30.472;2022-12-07T08:00:50;-2.70;99.90
29403;DHT22;16382;59.942;30.472;2022-12-07T08:03:17;-2.70;99.90
29403;DHT22;16382;59.942;30.472;2022-12-07T08:05:45;-2.70;99.90
29403;DHT22;16382;59.942;30.472;2022-12-07T08:08:12;-2.60;99.90
29403;DHT22;16382;59.942;30.472;2022-12-07T08:10:40;-2.60;99.90
29403;DHT22;16382;59.942;30.472;2022-12-07T08:13:07;-2.60;99.90
29403;DHT22;16382;59.942;30.472;2022-12-07T08:15:44;-2.60;99.90
29403;DHT22;16382;59.942;30.472;2022-12-07T08:18:13;-2.60;99.90
29403;DHT22;16382;59.942;30.472;2022-12-07T08:20:42;-2.60;99.90
29403;DHT22;16382;59.942;30.472;2022-12-07T08:23:10;-2.60;99.90
29403;DHT22;16382;59.942;30.472;2022-12-07T08:25:39;-2.50;99.90
29403;DHT22;16382;59.942;30.472;2022-12-07T08:28:06;-2.50;99.90
29403;DHT22;16382;59.942;30.472;2022-12-07T08:30:34;-2.50;99.90
29403;DHT22;16382;59.942;30.472;2022-12-07T08:33:03;-2.50;99.90
29403;DHT22;16382;59.942;30.472;2022-12-07T08:35:32;-2.50;99.90
29403;DHT22;16382;59.942;30.472;2022-12-07T08:38:00;-2.50;99.90
29403;DHT22;16382;59.942;30.472;2022-12-07T08:40:29;-2.50;99.90
29403;DHT22;16382;59.942;30.472;2022-12-07T08:42:57;-2.50;99.90
29403;DHT22;16382;59.942;30.472;2022-12-07T08:45:25;-2.60;99.90
29403;DHT22;16382;59.942;30.472;2022-12-07T08:47:57;-2.60;99.90
29403;DHT22;16382;59.942;30.472;2022-12-07T08:50:28;-2.50;99.90
29403;DHT22;16382;59.942;30.472;2022-12-07T08:52:57;-2.60;99.90
29403;DHT22;16382;59.942;30.472;2022-12-07T08:55:26;-2.50;99.90
29403;DHT22;16382;59.942;30.472;2022-12-07T08:57:55;-2.50;99.90
29403;DHT22;16382;59.942;30.472;2022-12-07T09:00:24;-2.50;99.90
29403;DHT22;16382;59.942;30.472;2022-12-07T09:02:53;-2.50;99.90
29403;DHT22;16382;59.942;30.472;2022-12-07T09:05:21;-2.50;99.90
29403;DHT22;16382;59.942;30.472;2022-12-07T09:07:52;-2.40;99.90
29403;DHT22;16382;59.942;30.472;2022-12-07T09:10:23;-2.40;99.90
29403;DHT22;16382;59.942;30.472;2022-12-07T09:12:50;-2.40;99.90
29403;DHT22;16382;59.942;30.472;2022-12-07T09:15:17;-2.40;99.90
29403;DHT22;16382;59.942;30.472;2022-12-07T09:17:45;-2.30;99.90
29403;DHT22;16382;59.942;30.472;2022-12-07T09:20:13;-2.40;99.90
29403;DHT22;16382;59.942;30.472;2022-12-07T09:22:40;-2.40;99.90
29403;DHT22;16382;59.942;30.472;2022-12-07T09:25:10;-2.40;99.90
29403;DHT22;16382;59.942;30.472;2022-12-07T09:27:37;-2.40;99.90
29403;DHT22;16382;59.942;30.472;2022-12-07T09:30:06;-2.40;99.90
29403;DHT22;16382;59.942;30.472;2022-12-07T09:32:34;-2.30;99.90
29403;DHT22;16382;59.942;30.472;2022-12-07T09:35:03;-2.30;99.90
29403;DHT22;16382;59.942;30.472;2022-12-07T09:37:31;-2.20;99.90
29403;DHT22;16382;59.942;30.472;2022-12-07T09:40:01;-2.20;99.90
29403;DHT22;16382;59.942;30.472;2022-12-07T09:42:36;-2.20;99.90
29403;DHT22;16382;59.942;30.472;2022-12-07T09:45:10;-2.20;99.90
29403;DHT22;16382;59.942;30.472;2022-12-07T09:47:39;-2.30;99.90
29403;DHT22;16382;59.942;30.472;2022-12-07T09:50:13;-2.40;99.90
29403;DHT22;16382;59.942;30.472;2022-12-07T09:52:43;-2.40;99.90
29403;DHT22;16382;59.942;30.472;2022-12-07T09:55:15;-2.40;99.90
29403;DHT22;16382;59.942;30.472;2022-12-07T09:57:46;-2.40;99.90
29403;DHT22;16382;59.942;30.472;2022-12-07T10:00:17;-2.40;99.90
29403;DHT22;16382;59.942;30.472;2022-12-07T10:02:50;-2.40;99.90
29403;DHT22;16382;59.942;30.472;2022-12-07T10:05:24;-2.40;99.90
29403;DHT22;16382;59.942;30.472;2022-12-07T10:07:53;-2.40;99.90
29403;DHT22;16382;59.942;30.472;2022-12-07T10:10:24;-2.40;99.90
29403;DHT22;16382;59.942;30.472;2022-12-07T10:12:56;-2.40;99.90
29403;DHT22;16382;59.942;30.472;2022-12-07T10:15:44;-2.50;99.90
29403;DHT22;16382;59.942;30.472;2022-12-07T10:18:25;-2.60;99.90
29403;DHT22;16382;59.942;30.472;2022-12-07T10:21:10;-2.60;99.90
29403;DHT22;16382;59.942;30.472;2022-12-07T10:23:41;-2.50;99.90
29403;DHT22;16382;59.942;30.472;2022-12-07T10:26:31;-2.50;99.90
29403;DHT22;16382;59.942;30.472;2022-12-07T10:29:14;-2.40;99.90
29403;DHT22;16382;59.942;30.472;2022-12-07T10:31:44;-2.50;99.90
29403;DHT22;16382;59.942;30.472;2022-12-07T10:34:21;-2.50;99.90
29403;DHT22;16382;59.942;30.472;2022-12-07T10:36:52;-2.40;99.90
29403;DHT22;16382;59.942;30.472;2022-12-07T10:39:22;-2.40;99.90
29403;DHT22;16382;59.942;30.472;2022-12-07T10:41:55;-2.50;99.90
29403;DHT22;16382;59.942;30.472;2022-12-07T10:44:27;-2.50;99.90
29403;DHT22;16382;59.942;30.472;2022-12-07T10:47:09;-2.60;99.90
29403;DHT22;16382;59.942;30.472;2022-12-07T10:50:02;-2.60;99.90
29403;DHT22;16382;59.942;30.472;2022-12-07T10:53:27;-2.60;99.90
29403;DHT22;16382;59.942;30.472;2022-12-07T10:59:34;-2.90;99.90
29403;DHT22;16382;59.942;30.472;2022-12-07T11:02:31;-2.90;99.90
29403;DHT22;16382;59.942;30.472;2022-12-07T11:05:14;-2.80;99.90
29403;DHT22;16382;59.942;30.472;2022-12-07T11:07:56;-2.80;99.90
29403;DHT22;16382;59.942;30.472;2022-12-07T11:10:33;-2.80;99.90
29403;DHT22;16382;59.942;30.472;2022-12-07T11:13:29;-2.90;99.90
29403;DHT22;16382;59.942;30.472;2022-12-07T11:16:21;-2.80;99.90
29403;DHT22;16382;59.942;30.472;2022-12-07T11:19:20;-2.80;99.90
29403;DHT22;16382;59.942;30.472;2022-12-07T11:21:58;-2.80;99.90
29403;DHT22;16382;59.942;30.472;2022-12-07T11:24:35;-2.90;99.90
29403;DHT22;16382;59.942;30.472;2022-12-07T11:27:15;-2.80;99.90
29403;DHT22;16382;59.942;30.472;2022-12-07T11:30:08;-2.90;99.90
29403;DHT22;16382;59.942;30.472;2022-12-07T11:33:10;-2.90;99.90
29403;DHT22;16382;59.942;30.472;2022-12-07T11:35:50;-3.00;99.90
29403;DHT22;16382;59.942;30.472;2022-12-07T11:38:28;-3.00;99.90
29403;DHT22;16382;59.942;30.472;2022-12-07T11:41:03;-2.90;99.90
29403;DHT22;16382;59.942;30.472;2022-12-07T11:43:50;-3.00;99.90
29403;DHT22;16382;59.942;30.472;2022-12-07T11:46:25;-2.90;99.90
29403;DHT22;16382;59.942;30.472;2022-12-07T11:49:01;-2.90;99.90
29403;DHT22;16382;59.942;30.472;2022-12-07T11:51:34;-3.00;99.90
29403;DHT22;16382;59.942;30.472;2022-12-07T11:54:12;-3.00;99.90
29403;DHT22;16382;59.942;30.472;2022-12-07T11:56:42;-3.10;99.90
29403;DHT22;16382;59.942;30.472;2022-12-07T11:59:16;-3.20;99.90
29403;DHT22;16382;59.942;30.472;2022-12-07T12:01:52;-3.30;99.90
29403;DHT22;16382;59.942;30.472;2022-12-07T12:04:31;-3.30;99.90
29403;DHT22;16382;59.942;30.472;2022-12-07T12:07:06;-3.40;99.90
29403;DHT22;16382;59.942;30.472;2022-12-07T12:09:35;-3.40;99.90
29403;DHT22;16382;59.942;30.472;2022-12-07T12:12:35;-3.50;99.90
29403;DHT22;16382;59.942;30.472;2022-12-07T12:15:22;-3.60;99.90
29403;DHT22;16382;59.942;30.472;2022-12-07T12:18:12;-3.60;99.90
29403;DHT22;16382;59.942;30.472;2022-12-07T12:20:57;-3.70;99.90
29403;DHT22;16382;59.942;30.472;2022-12-07T12:23:35;-3.70;99.90
29403;DHT22;16382;59.942;30.472;2022-12-07T12:26:13;-3.70;99.90
29403;DHT22;16382;59.942;30.472;2022-12-07T12:28:52;-3.70;99.90
29403;DHT22;16382;59.942;30.472;2022-12-07T12:31:38;-3.80;99.90
29403;DHT22;16382;59.942;30.472;2022-12-07T12:34:39;-3.80;99.90
29403;DHT22;16382;59.942;30.472;2022-12-07T12:37:44;-3.70;99.90
29403;DHT22;16382;59.942;30.472;2022-12-07T12:43:45;-3.80;99.90
29403;DHT22;16382;59.942;30.472;2022-12-07T12:46:49;-3.70;99.90
29403;DHT22;16382;59.942;30.472;2022-12-07T12:49:39;-3.80;99.90
29403;DHT22;16382;59.942;30.472;2022-12-07T12:58:47;-3.80;99.90
29403;DHT22;16382;59.942;30.472;2022-12-07T13:01:46;-3.80;99.90
29403;DHT22;16382;59.942;30.472;2022-12-07T13:04:39;-3.80;99.90
29403;DHT22;16382;59.942;30.472;2022-12-07T13:07:57;-3.80;99.90
29403;DHT22;16382;59.942;30.472;2022-12-07T13:10:41;-3.90;99.90
29403;DHT22;16382;59.942;30.472;2022-12-07T13:13:28;-3.90;99.90
29403;DHT22;16382;59.942;30.472;2022-12-07T13:22:46;-3.90;99.90
29403;DHT22;16382;59.942;30.472;2022-12-07T13:25:33;-3.80;99.90
29403;DHT22;16382;59.942;30.472;2022-12-07T13:28:12;-3.90;99.90
29403;DHT22;16382;59.942;30.472;2022-12-07T13:30:58;-3.90;99.90
29403;DHT22;16382;59.942;30.472;2022-12-07T13:33:30;-4.00;99.90
29403;DHT22;16382;59.942;30.472;2022-12-07T13:35:57;-3.90;99.90
29403;DHT22;16382;59.942;30.472;2022-12-07T13:38:29;-4.00;99.90
29403;DHT22;16382;59.942;30.472;2022-12-07T13:41:03;-4.00;99.90
29403;DHT22;16382;59.942;30.472;2022-12-07T13:43:43;-3.90;99.90
29403;DHT22;16382;59.942;30.472;2022-12-07T13:46:12;-3.90;99.90
29403;DHT22;16382;59.942;30.472;2022-12-07T13:48:45;-3.90;99.90
29403;DHT22;16382;59.942;30.472;2022-12-07T13:51:20;-3.90;99.90
29403;DHT22;16382;59.942;30.472;2022-12-07T13:53:51;-3.90;99.90
29403;DHT22;16382;59.942;30.472;2022-12-07T13:56:25;-3.90;99.90
29403;DHT22;16382;59.942;30.472;2022-12-07T13:58:56;-3.90;99.90
29403;DHT22;16382;59.942;30.472;2022-12-07T14:01:24;-3.80;99.90
29403;DHT22;16382;59.942;30.472;2022-12-07T14:03:53;-3.80;99.90
29403;DHT22;16382;59.942;30.472;2022-12-07T14:06:25;-3.80;99.90
29403;DHT22;16382;59.942;30.472;2022-12-07T14:09:08;-3.80;99.90
29403;DHT22;16382;59.942;30.472;2022-12-07T14:11:37;-3.90;99.90
29403;DHT22;16382;59.942;30.472;2022-12-07T14:14:06;-3.80;99.90
29403;DHT22;16382;59.942;30.472;2022-12-07T14:16:37;-3.90;99.90
29403;DHT22;16382;59.942;30.472;2022-12-07T14:19:40;-3.90;99.90
29403;DHT22;16382;59.942;30.472;2022-12-07T14:22:29;-3.90;99.90
29403;DHT22;16382;59.942;30.472;2022-12-07T14:27:53;-3.80;99.90
29403;DHT22;16382;59.942;30.472;2022-12-07T14:30:25;-3.90;99.90
29403;DHT22;16382;59.942;30.472;2022-12-07T14:32:57;-3.90;99.90
29403;DHT22;16382;59.942;30.472;2022-12-07T14:35:27;-3.90;99.90
29403;DHT22;16382;59.942;30.472;2022-12-07T14:38:00;-3.80;99.90
29403;DHT22;16382;59.942;30.472;2022-12-07T14:40:29;-3.80;99.90
29403;DHT22;16382;59.942;30.472;2022-12-07T14:43:01;-3.80;99.90
29403;DHT22;16382;59.942;30.472;2022-12-07T14:45:29;-3.90;99.90
29403;DHT22;16382;59.942;30.472;2022-12-07T14:47:58;-3.90;99.90
29403;DHT22;16382;59.942;30.472;2022-12-07T14:50:25;-3.90;99.90
29403;DHT22;16382;59.942;30.472;2022-12-07T14:52:56;-3.90;99.90
29403;DHT22;16382;59.942;30.472;2022-12-07T14:55:28;-3.80;99.90
29403;DHT22;16382;59.942;30.472;2022-12-07T14:57:59;-3.80;99.90
29403;DHT22;16382;59.942;30.472;2022-12-07T15:00:27;-3.70;99.90
29403;DHT22;16382;59.942;30.472;2022-12-07T15:02:56;-3.70;99.90
29403;DHT22;16382;59.942;30.472;2022-12-07T15:05:24;-3.70;99.90
29403;DHT22;16382;59.942;30.472;2022-12-07T15:07:52;-3.70;99.90
29403;DHT22;16382;59.942;30.472;2022-12-07T15:10:22;-3.80;99.90
29403;DHT22;16382;59.942;30.472;2022-12-07T15:12:55;-3.80;99.90
29403;DHT22;16382;59.942;30.472;2022-12-07T15:15:44;-3.80;99.90
29403;DHT22;16382;59.942;30.472;2022-12-07T15:18:12;-3.80;99.90
29403;DHT22;16382;59.942;30.472;2022-12-07T15:20:40;-3.80;99.90
29403;DHT22;16382;59.942;30.472;2022-12-07T15:23:08;-3.80;99.90
29403;DHT22;16382;59.942;30.472;2022-12-07T15:25:37;-3.80;99.90
29403;DHT22;16382;59.942;30.472;2022-12-07T15:28:08;-3.80;99.90
29403;DHT22;16382;59.942;30.472;2022-12-07T15:30:37;-3.70;99.90
29403;DHT22;16382;59.942;30.472;2022-12-07T15:33:10;-3.70;99.90
29403;DHT22;16382;59.942;30.472;2022-12-07T15:35:38;-3.60;99.90
29403;DHT22;16382;59.942;30.472;2022-12-07T15:38:06;-3.60;99.90
29403;DHT22;16382;59.942;30.472;2022-12-07T15:40:34;-3.60;99.90
29403;DHT22;16382;59.942;30.472;2022-12-07T15:43:01;-3.60;99.90
29403;DHT22;16382;59.942;30.472;2022-12-07T15:45:29;-3.60;99.90
29403;DHT22;16382;59.942;30.472;2022-12-07T15:47:56;-3.60;99.90
29403;DHT22;16382;59.942;30.472;2022-12-07T15:50:25;-3.70;99.90
29403;DHT22;16382;59.942;30.472;2022-12-07T15:52:52;-3.70;99.90
29403;DHT22;16382;59.942;30.472;2022-12-07T15:55:20;-3.70;99.90
29403;DHT22;16382;59.942;30.472;2022-12-07T15:57:47;-3.60;99.90
29403;DHT22;16382;59.942;30.472;2022-12-07T16:00:16;-3.50;99.90
29403;DHT22;16382;59.942;30.472;2022-12-07T16:02:44;-3.50;99.90
29403;DHT22;16382;59.942;30.472;2022-12-07T16:05:12;-3.50;99.90
29403;DHT22;16382;59.942;30.472;2022-12-07T16:07:41;-3.40;99.90
29403;DHT22;16382;59.942;30.472;2022-12-07T16:10:10;-3.30;99.90
29403;DHT22;16382;59.942;30.472;2022-12-07T16:12:38;-3.30;99.90
29403;DHT22;16382;59.942;30.472;2022-12-07T16:15:07;-3.30;99.90
29403;DHT22;16382;59.942;30.472;2022-12-07T16:17:36;-3.40;99.90